Time;durP1;ratioP1;P1;durP2;ratioP2;P2;SDS_P1;SDS_P2;PMS_P1;PMS_P2;Temp;Humidity;BMP_temperature;BMP_pressure;BME280_temperature;BME280_humidity;BME280_pressure;Samples;Min_cycle;Max_cycle;Signal;HPM_P1;HPM_P2
2022/10/15 00:01:33;;;;;;;2.00;1.33;;;15.30;99.90;;;18.10;62.22;96908.22;5042459;28;20052;-48
2022/10/15 00:04:01;;;;;;;1.35;1.02;;;15.20;99.90;;;18.13;62.28;96906.16;5043125;28;20243;-47
2022/10/15 00:06:33;;;;;;;4.83;1.27;;;15.20;99.90;;;18.15;62.22;96907.56;5042201;28;20079;-48
2022/10/15 00:09:01;;;;;;;1.42;1.00;;;15.30;99.90;;;18.12;62.33;96899.94;5042132;28;20049;-47
2022/10/15 00:11:30;;;;;;;1.27;1.02;;;15.20;99.90;;;18.12;62.41;96891.84;5041984;28;20083;-47
2022/10/15 00:13:59;;;;;;;2.38;1.13;;;15.30;99.90;;;18.10;62.58;96892.06;5042214;28;20052;-47
2022/10/15 00:16:28;;;;;;;2.63;1.35;;;15.30;99.90;;;18.12;62.53;96886.47;5041960;28;20047;-47
2022/10/15 00:18:58;;;;;;;1.58;1.08;;;15.30;99.90;;;18.13;62.57;96896.19;5042171;28;20235;-47
2022/10/15 00:21:26;;;;;;;1.92;1.05;;;15.20;99.90;;;18.14;62.49;96897.81;5042754;28;20348;-47
2022/10/15 00:23:55;;;;;;;1.00;0.80;;;15.20;99.90;;;18.08;62.81;96894.16;5042283;28;20049;-47
2022/10/15 00:26:27;;;;;;;1.58;1.30;;;15.20;99.90;;;18.08;62.68;96896.88;5040794;28;20058;-47
2022/10/15 00:28:59;;;;;;;1.15;0.93;;;15.20;99.90;;;18.14;62.78;96897.00;5042114;28;20339;-47
2022/10/15 00:31:30;;;;;;;1.08;0.90;;;15.20;99.90;;;18.17;62.72;96901.97;5041921;28;20056;-50
2022/10/15 00:34:00;;;;;;;1.83;0.80;;;15.20;99.90;;;18.17;62.61;96897.38;5042834;28;20045;-49
2022/10/15 00:36:33;;;;;;;2.05;0.80;;;15.30;99.90;;;18.15;62.84;96895.97;5040485;28;20356;-47
2022/10/15 00:39:04;;;;;;;0.93;0.70;;;15.30;99.90;;;18.17;62.83;96885.78;5024646;28;20045;-47
2022/10/15 00:41:40;;;;;;;1.55;0.70;;;15.30;99.90;;;18.17;62.72;96892.00;5025130;28;20056;-47
2022/10/15 00:44:28;;;;;;;1.25;0.77;;;15.30;99.90;;;18.17;62.73;96889.31;5025005;28;20045;-47
2022/10/15 00:47:12;;;;;;;2.85;0.70;;;15.30;99.90;;;18.20;62.73;96886.13;5041594;28;20057;-50
2022/10/15 00:49:55;;;;;;;1.52;0.90;;;15.40;99.90;;;18.23;62.54;96888.38;5041928;28;20055;-47
2022/10/15 00:52:39;;;;;;;3.78;0.90;;;15.40;99.90;;;18.15;62.99;96885.22;5041651;28;20067;-47
2022/10/15 00:55:12;;;;;;;2.55;0.70;;;15.40;99.90;;;18.18;63.04;96888.25;5041926;28;20244;-49
2022/10/15 00:57:42;;;;;;;1.73;0.90;;;15.30;99.90;;;18.20;62.93;96879.94;5041606;28;20203;-47
2022/10/15 01:00:14;;;;;;;4.18;3.03;;;15.40;99.90;;;18.17;63.11;96877.72;5040117;28;20053;-46
2022/10/15 01:02:44;;;;;;;1.30;0.70;;;15.40;99.90;;;18.19;63.15;96873.72;5040269;28;20059;-49
2022/10/15 01:05:15;;;;;;;0.60;0.60;;;15.40;99.90;;;18.25;63.06;96874.69;5041839;28;20053;-51
2022/10/15 01:07:43;;;;;;;0.45;0.45;;;15.40;99.90;;;18.25;63.19;96870.13;5028088;28;20247;-48
2022/10/15 01:10:12;;;;;;;1.33;0.70;;;15.40;99.90;;;18.22;63.31;96875.97;5045534;28;20063;-51
2022/10/15 01:13:21;;;;;;;2.95;0.75;;;15.40;99.90;;;18.23;63.24;96871.41;5042203;28;20041;-50
2022/10/15 01:15:58;;;;;;;0.85;0.73;;;15.40;99.90;;;18.27;63.14;96864.50;5044453;28;20041;-52
2022/10/15 01:18:38;;;;;;;2.47;1.10;;;15.40;99.90;;;18.29;63.22;96865.91;5043817;28;20047;-48
2022/10/15 01:21:39;;;;;;;1.73;0.85;;;15.40;99.90;;;18.24;63.20;96859.56;5044407;28;20060;-48
2022/10/15 01:24:49;;;;;;;2.30;0.95;;;15.50;99.90;;;18.28;63.03;96866.97;5044119;28;20055;-52
2022/10/15 01:27:51;;;;;;;0.85;0.65;;;15.50;99.90;;;18.29;63.16;96859.72;5043949;28;20343;-48
2022/10/15 01:30:24;;;;;;;0.93;0.82;;;15.50;99.90;;;18.32;63.20;96863.81;5045111;28;20046;-52
2022/10/15 01:33:41;;;;;;;1.67;0.80;;;15.50;99.90;;;18.24;63.57;96860.41;5044079;28;20056;-47
2022/10/15 01:36:30;;;;;;;1.00;0.47;;;15.50;99.90;;;18.28;63.32;96852.66;5044214;28;20262;-48
2022/10/15 01:39:15;;;;;;;1.08;0.60;;;15.50;99.90;;;18.18;63.86;96869.38;5028669;28;20347;-49
2022/10/15 01:41:50;;;;;;;2.63;0.63;;;15.50;99.90;;;18.23;63.92;96857.94;5043984;28;20358;-50
2022/10/15 01:44:37;;;;;;;1.08;0.75;;;15.50;99.90;;;18.21;64.04;96862.75;5028197;28;20340;-48
2022/10/15 01:47:47;;;;;;;0.90;0.73;;;15.50;99.90;;;18.23;63.94;96850.66;5043165;28;20057;-50
2022/10/15 01:50:22;;;;;;;0.80;0.80;;;15.50;99.90;;;18.24;63.98;96856.88;5028730;28;20064;-48
2022/10/15 01:52:51;;;;;;;3.87;1.10;;;15.50;99.90;;;18.23;64.09;96847.97;5043277;28;20045;-48
2022/10/15 01:55:21;;;;;;;0.50;0.50;;;15.50;99.90;;;18.18;64.43;96847.84;5044977;28;20347;-50
2022/10/15 01:57:51;;;;;;;1.27;1.17;;;15.50;99.90;;;18.29;64.10;96854.31;5043151;28;20052;-49
2022/10/15 02:00:19;;;;;;;0.50;0.50;;;15.60;99.90;;;18.30;64.16;96850.59;5043327;28;20053;-48
2022/10/15 02:02:46;;;;;;;0.80;0.57;;;15.60;99.90;;;18.34;64.12;96848.22;5045179;28;20106;-52
2022/10/15 02:05:23;;;;;;;0.82;0.70;;;15.60;99.90;;;18.35;64.08;96853.41;5043776;28;20053;-49
2022/10/15 02:08:23;;;;;;;0.60;0.55;;;15.60;99.90;;;18.39;63.88;96851.88;5043425;28;20057;-49
2022/10/15 02:11:12;;;;;;;0.68;0.60;;;15.60;99.90;;;18.44;63.82;96859.28;5043549;28;20049;-52
2022/10/15 02:14:10;;;;;;;0.40;0.40;;;15.60;99.90;;;18.36;64.12;96865.84;5028628;28;20366;-48
2022/10/15 02:16:58;;;;;;;0.50;0.50;;;15.60;99.90;;;18.33;64.21;96860.09;5059087;28;20057;-48
2022/10/15 02:19:53;;;;;;;0.65;0.55;;;15.60;99.90;;;18.33;64.32;96858.19;5043239;28;20055;-50
2022/10/15 02:22:31;;;;;;;0.70;0.65;;;15.50;99.90;;;18.38;64.23;96858.34;5059354;28;20378;-49
2022/10/15 02:25:13;;;;;;;0.70;0.65;;;15.50;99.90;;;18.34;64.28;96856.31;5043205;28;20356;-49
2022/10/15 02:27:43;;;;;;;0.50;0.50;;;15.50;99.90;;;18.36;64.40;96856.91;5043568;28;20047;-48
2022/10/15 02:30:13;;;;;;;1.75;0.52;;;15.50;99.90;;;18.39;64.52;96862.66;5043019;28;20059;-48
2022/10/15 02:32:43;;;;;;;1.60;0.98;;;15.60;99.90;;;18.38;64.33;96860.19;5042060;28;20053;-48
2022/10/15 02:35:11;;;;;;;0.70;0.70;;;15.60;99.90;;;18.40;64.61;96860.81;5043268;28;20380;-48
2022/10/15 02:37:48;;;;;;;0.30;0.30;;;15.60;99.90;;;18.45;64.42;96864.44;5042511;28;20059;-52
2022/10/15 02:40:23;;;;;;;0.38;0.30;;;15.70;99.90;;;18.50;64.38;96872.66;5042845;28;20143;-51
2022/10/15 02:42:51;;;;;;;0.50;0.50;;;15.70;99.90;;;18.53;64.36;96865.16;5043742;28;20057;-49
2022/10/15 02:45:20;;;;;;;0.90;0.40;;;15.70;99.90;;;18.46;64.52;96870.66;5042876;28;20064;-49
2022/10/15 02:47:48;;;;;;;0.82;0.60;;;15.70;99.90;;;18.48;64.54;96872.06;5043358;28;20235;-47
2022/10/15 02:50:17;;;;;;;0.73;0.40;;;15.60;99.90;;;18.47;64.62;96858.81;5042441;28;20053;-49
2022/10/15 02:52:45;;;;;;;2.58;0.75;;;15.70;99.90;;;18.48;64.79;96863.16;5043430;28;20041;-49
2022/10/15 02:55:13;;;;;;;0.30;0.30;;;15.70;99.90;;;18.47;64.95;96865.03;5059200;28;20068;-48
2022/10/15 02:57:41;;;;;;;0.88;0.65;;;15.70;99.90;;;18.48;64.83;96869.38;5043627;28;20053;-49
2022/10/15 03:00:10;;;;;;;1.30;0.70;;;15.70;99.90;;;18.48;64.84;96874.75;5058423;28;20045;-48
2022/10/15 03:02:40;;;;;;;0.50;0.50;;;15.80;99.90;;;18.52;64.91;96871.63;5042262;28;20053;-51
2022/10/15 03:05:08;;;;;;;0.50;0.30;;;15.80;99.90;;;18.54;64.81;96873.03;5042435;28;20262;-49
2022/10/15 03:07:36;;;;;;;0.20;0.20;;;15.80;99.90;;;18.54;64.98;96872.22;5042638;28;20151;-48
2022/10/15 03:10:06;;;;;;;0.40;0.32;;;15.80;99.90;;;18.53;65.03;96881.34;5043262;28;20049;-50
2022/10/15 03:12:34;;;;;;;1.77;0.47;;;15.80;99.90;;;18.54;65.02;96877.59;5042053;28;20385;-51
2022/10/15 03:15:04;;;;;;;0.50;0.50;;;15.80;99.90;;;18.56;64.97;96878.19;5042629;28;20049;-49
2022/10/15 03:17:32;;;;;;;0.55;0.50;;;15.80;99.90;;;18.59;64.77;96877.72;5042908;28;20107;-51
2022/10/15 03:20:00;;;;;;;1.05;0.60;;;15.80;99.90;;;18.64;64.74;96873.28;5042949;28;20374;-49
2022/10/15 03:22:31;;;;;;;0.47;0.47;;;15.80;99.90;;;18.64;64.74;96872.47;5041844;28;20056;-50
2022/10/15 03:24:59;;;;;;;0.30;0.30;;;15.80;99.90;;;18.66;64.75;96883.81;5041942;28;20053;-51
2022/10/15 03:27:28;;;;;;;0.43;0.43;;;15.80;99.90;;;18.69;64.75;96886.06;5040419;28;20060;-49
2022/10/15 03:29:56;;;;;;;0.40;0.40;;;15.90;99.90;;;18.68;64.62;96882.53;5040890;28;20063;-51
2022/10/15 03:32:28;;;;;;;0.85;0.32;;;15.80;99.90;;;18.69;64.74;96888.78;5041831;28;20053;-50
2022/10/15 03:35:02;;;;;;;0.35;0.35;;;15.80;99.90;;;18.72;64.58;96884.78;5043504;28;20053;-49
2022/10/15 03:37:31;;;;;;;0.40;0.40;;;15.80;99.90;;;18.74;64.49;96885.38;5041403;28;20049;-52
2022/10/15 03:39:59;;;;;;;1.55;0.40;;;15.90;99.90;;;18.73;64.56;96887.25;5041492;28;20045;-48
2022/10/15 03:42:27;;;;;;;1.33;0.40;;;15.90;99.90;;;18.73;64.60;96887.25;5042537;28;20068;-47
2022/10/15 03:44:55;;;;;;;0.95;0.40;;;15.90;99.90;;;18.72;64.76;96896.38;5041745;28;20216;-49
2022/10/15 03:47:23;;;;;;;0.30;0.30;;;15.90;99.90;;;18.73;64.66;96905.28;5057932;28;20053;-50
2022/10/15 03:49:51;;;;;;;0.30;0.30;;;15.90;99.90;;;18.71;64.85;96900.16;5042243;28;20121;-47
2022/10/15 03:52:20;;;;;;;0.65;0.60;;;15.90;99.90;;;18.69;64.94;96903.06;5041977;28;20351;-48
2022/10/15 03:54:52;;;;;;;0.50;0.30;;;15.90;99.90;;;18.74;64.83;96898.84;5041753;28;20108;-48
2022/10/15 03:57:21;;;;;;;0.57;0.30;;;16.00;99.90;;;18.73;64.94;96899.88;5040607;28;20051;-50
2022/10/15 03:59:54;;;;;;;0.55;0.38;;;16.00;99.90;;;18.67;65.18;96902.47;5041044;28;20056;-50
2022/10/15 04:02:24;;;;;;;0.50;0.32;;;15.90;99.90;;;18.48;65.73;96904.41;5041255;28;20049;-49
2022/10/15 04:04:54;;;;;;;2.92;0.50;;;15.90;99.90;;;18.49;65.82;96911.47;5042442;28;20275;-52
2022/10/15 04:07:22;;;;;;;0.55;0.30;;;15.90;99.90;;;18.58;65.53;96906.53;5056968;28;20048;-49
2022/10/15 04:09:51;;;;;;;0.40;0.40;;;15.90;99.90;;;18.46;65.81;96911.91;5058093;28;20049;-49
2022/10/15 04:12:26;;;;;;;0.20;0.20;;;15.90;99.90;;;18.57;65.37;96904.91;5054893;28;20045;-49
2022/10/15 04:14:54;;;;;;;0.30;0.30;;;15.90;99.90;;;18.51;65.68;96927.38;5040781;28;20093;-51
2022/10/15 04:17:22;;;;;;;0.35;0.35;;;15.90;99.90;;;18.48;65.69;96909.81;5041031;28;20049;-52
2022/10/15 04:19:50;;;;;;;0.50;0.50;;;15.90;99.90;;;18.60;65.24;96915.22;5058281;28;20045;-49
2022/10/15 04:22:20;;;;;;;0.30;0.30;;;15.90;99.90;;;18.61;65.14;96916.88;5041376;28;20051;-51
2022/10/15 04:24:52;;;;;;;1.50;0.80;;;15.90;99.90;;;18.71;64.88;96919.00;5041818;28;20059;-50
2022/10/15 04:27:28;;;;;;;0.75;0.50;;;16.00;99.90;;;18.79;64.77;96917.88;5056964;28;20049;-51
2022/10/15 04:30:06;;;;;;;0.20;0.20;;;16.00;99.90;;;18.80;64.75;96927.59;5041268;28;20060;-50
2022/10/15 04:32:37;;;;;;;0.73;0.30;;;16.00;99.90;;;18.86;64.54;96935.63;5040794;28;20057;-51
2022/10/15 04:35:05;;;;;;;0.30;0.30;;;16.00;99.90;;;18.89;64.28;96932.44;5042209;28;20227;-49
2022/10/15 04:37:55;;;;;;;1.40;0.40;;;16.00;99.90;;;18.92;64.18;96925.78;5041752;28;20057;-52
2022/10/15 04:40:23;;;;;;;0.85;0.60;;;16.00;99.90;;;18.88;64.37;96929.97;5027080;28;20049;-48
2022/10/15 04:42:51;;;;;;;1.27;0.70;;;16.00;99.90;;;18.90;64.33;96927.84;5044791;28;20358;-49
2022/10/15 04:45:19;;;;;;;0.70;0.40;;;16.00;99.90;;;18.92;64.14;96935.72;5046091;28;20045;-50
2022/10/15 04:47:48;;;;;;;0.63;0.30;;;16.00;99.90;;;18.90;64.17;96930.56;5044273;28;20059;-53
2022/10/15 04:50:17;;;;;;;0.52;0.40;;;16.00;99.90;;;18.91;64.19;96948.38;5028854;28;20057;-50
2022/10/15 04:53:04;;;;;;;0.75;0.20;;;16.00;99.90;;;18.87;64.07;96948.03;5046023;28;20067;-49
2022/10/15 04:55:36;;;;;;;1.15;0.85;;;16.00;99.90;;;18.93;64.08;96950.88;5061366;28;20057;-49
2022/10/15 04:58:04;;;;;;;2.22;1.10;;;16.00;99.90;;;18.88;64.11;96948.84;5060634;28;20049;-50
2022/10/15 05:00:32;;;;;;;2.45;1.65;;;16.00;99.90;;;18.87;64.09;96952.59;5044224;28;20049;-48
2022/10/15 05:03:18;;;;;;;3.28;2.17;;;16.00;99.90;;;18.89;64.13;96950.50;5046201;28;20055;-48
2022/10/15 05:05:53;;;;;;;4.60;2.53;;;16.00;99.90;;;18.92;64.09;96952.75;5044463;28;20057;-52
2022/10/15 05:08:21;;;;;;;6.00;3.85;;;16.00;99.90;;;18.95;64.01;96956.84;5044001;28;20228;-48
2022/10/15 05:11:22;;;;;;;1.00;0.88;;;16.10;99.90;;;18.91;64.11;96953.78;5060482;28;20053;-49
2022/10/15 05:13:53;;;;;;;0.45;0.45;;;16.00;99.90;;;18.84;64.37;96963.84;5028337;28;20045;-51
2022/10/15 05:16:27;;;;;;;0.40;0.30;;;15.90;99.90;;;18.84;64.33;96961.16;5044398;28;20247;-48
2022/10/15 05:19:16;;;;;;;0.35;0.22;;;16.00;99.90;;;18.79;64.28;96969.09;5027997;28;20079;-52
2022/10/15 05:21:45;;;;;;;2.58;0.50;;;16.00;99.90;;;18.86;64.18;96972.53;5044670;28;20059;-51
2022/10/15 05:24:22;;;;;;;1.08;0.98;;;16.00;99.90;;;18.92;63.98;96970.78;5044503;28;20061;-51
2022/10/15 05:27:03;;;;;;;1.48;0.80;;;16.00;99.90;;;18.86;64.12;96977.91;5042862;28;20057;-48
2022/10/15 05:29:33;;;;;;;1.58;0.47;;;16.00;99.90;;;18.90;63.96;96976.41;5043984;28;20057;-49
2022/10/15 05:32:01;;;;;;;0.70;0.47;;;16.00;99.90;;;18.88;64.08;96986.59;5044210;28;20053;-54
2022/10/15 05:34:29;;;;;;;0.30;0.30;;;16.00;99.90;;;18.87;64.04;96990.34;5044513;28;20041;-53
2022/10/15 05:37:02;;;;;;;1.10;0.80;;;16.00;99.90;;;18.91;63.89;96985.34;5043495;28;20347;-49
2022/10/15 05:39:31;;;;;;;1.30;0.98;;;16.00;99.90;;;18.86;64.09;96984.16;5043890;28;20277;-52
2022/10/15 05:41:59;;;;;;;1.13;0.75;;;16.00;99.90;;;18.85;64.00;96989.78;5060456;28;20049;-52
2022/10/15 05:44:40;;;;;;;1.20;1.10;;;16.00;99.90;;;18.86;64.03;96984.16;5044041;28;20058;-53
2022/10/15 05:47:10;;;;;;;1.38;1.27;;;16.00;99.90;;;18.87;64.08;96990.34;5044314;28;20056;-54
2022/10/15 05:49:40;;;;;;;1.73;1.25;;;16.00;99.90;;;18.84;64.00;96996.19;5043976;28;20053;-51
2022/10/15 05:52:26;;;;;;;2.65;1.30;;;16.00;99.90;;;18.85;63.95;97001.38;5042608;28;20049;-51
2022/10/15 05:55:14;;;;;;;1.08;0.85;;;16.00;99.90;;;18.84;63.91;97002.44;5044575;28;20053;-53
2022/10/15 05:57:42;;;;;;;1.55;1.25;;;16.00;99.90;;;18.86;63.89;97002.19;5044236;28;20055;-54
2022/10/15 06:00:11;;;;;;;2.53;1.50;;;16.00;99.90;;;18.88;63.92;97002.78;5044553;28;20055;-50
2022/10/15 06:02:39;;;;;;;1.35;1.10;;;16.00;99.90;;;18.92;63.62;97012.06;5044777;28;20055;-51
2022/10/15 06:05:07;;;;;;;1.65;0.95;;;16.00;99.90;;;18.96;63.74;97015.13;5044336;28;20212;-51
2022/10/15 06:07:35;;;;;;;1.17;0.90;;;16.10;99.90;;;19.00;63.67;97022.53;5044025;28;20052;-49
2022/10/15 06:10:05;;;;;;;1.45;1.00;;;16.10;99.90;;;19.03;63.51;97022.06;5045235;28;20053;-51
2022/10/15 06:12:37;;;;;;;1.77;0.73;;;16.10;99.90;;;19.01;63.42;97024.16;5044388;28;20055;-50
2022/10/15 06:15:06;;;;;;;0.63;0.60;;;16.10;99.90;;;18.97;63.57;97025.69;5044382;28;20252;-48
2022/10/15 06:17:34;;;;;;;2.55;0.70;;;16.00;99.90;;;18.96;63.54;97034.00;5043782;28;20041;-52
2022/10/15 06:20:02;;;;;;;1.23;0.80;;;16.00;99.90;;;18.99;63.68;97034.38;5044346;28;20376;-52
2022/10/15 06:22:30;;;;;;;1.38;0.77;;;16.00;99.90;;;19.03;63.58;97046.34;5044249;28;20049;-54
2022/10/15 06:24:58;;;;;;;0.60;0.60;;;16.10;99.90;;;19.02;63.56;97047.41;5044215;28;20045;-52
2022/10/15 06:27:27;;;;;;;1.17;0.57;;;16.10;99.90;;;19.02;63.50;97049.28;5043805;28;20053;-53
2022/10/15 06:29:54;;;;;;;0.70;0.70;;;16.10;99.90;;;19.03;63.41;97051.72;5044392;28;20049;-49
2022/10/15 06:32:22;;;;;;;1.95;0.90;;;16.10;99.90;;;19.02;63.35;97052.78;5043879;28;20067;-51
2022/10/15 06:34:50;;;;;;;1.77;0.70;;;16.10;99.90;;;19.01;63.40;97059.22;5042836;28;20045;-54
2022/10/15 06:37:18;;;;;;;1.35;0.65;;;16.10;99.90;;;19.00;63.45;97071.09;5043812;28;20055;-47
2022/10/15 06:39:46;;;;;;;0.75;0.40;;;16.10;99.90;;;19.01;63.55;97077.28;5043474;28;20049;-52
2022/10/15 06:42:14;;;;;;;0.50;0.50;;;16.10;99.90;;;19.03;63.50;97069.78;5043875;28;20041;-49
2022/10/15 06:44:42;;;;;;;0.80;0.80;;;16.10;99.90;;;19.05;63.55;97070.38;5043864;28;20045;-49
2022/10/15 06:47:10;;;;;;;0.90;0.60;;;16.10;99.90;;;19.08;63.52;97080.72;5044116;28;20053;-48
2022/10/15 06:49:38;;;;;;;0.50;0.50;;;16.10;99.90;;;19.10;63.47;97084.03;5043625;28;20049;-49
2022/10/15 06:52:06;;;;;;;0.77;0.77;;;16.10;99.90;;;19.13;63.46;97086.25;5043739;28;20052;-50
2022/10/15 06:54:34;;;;;;;1.83;0.65;;;16.20;99.90;;;19.15;63.33;97083.31;5043615;28;20041;-52
2022/10/15 06:57:03;;;;;;;1.17;0.90;;;16.20;99.90;;;19.16;63.31;97091.19;5043175;28;20068;-49
2022/10/15 06:59:31;;;;;;;0.88;0.63;;;16.20;99.90;;;19.16;63.38;97093.06;5043534;28;20051;-53
2022/10/15 07:02:01;;;;;;;0.57;0.57;;;16.20;99.90;;;19.17;63.42;97095.53;5043872;28;20240;-52
2022/10/15 07:04:29;;;;;;;0.55;0.55;;;16.20;99.90;;;19.22;63.17;97102.94;5042333;28;20049;-49
2022/10/15 07:06:57;;;;;;;1.38;0.75;;;16.20;99.90;;;19.24;63.13;97106.22;5042919;28;20355;-48
2022/10/15 07:09:26;;;;;;;0.63;0.60;;;16.30;99.90;;;19.24;63.13;97106.22;5043671;28;20075;-50
2022/10/15 07:11:55;;;;;;;1.27;0.80;;;16.30;99.90;;;19.26;63.25;97110.34;5043590;28;20366;-49
2022/10/15 07:14:23;;;;;;;0.50;0.50;;;16.30;99.90;;;19.27;63.20;97116.59;5039816;28;20041;-52
2022/10/15 07:16:50;;;;;;;0.50;0.50;;;16.30;99.90;;;19.28;63.51;97116.31;5042728;28;20339;-53
2022/10/15 07:19:22;;;;;;;0.60;0.60;;;16.30;99.90;;;19.32;63.38;97114.00;5043094;28;20045;-48
2022/10/15 07:21:50;;;;;;;2.15;0.80;;;16.40;99.90;;;19.35;63.21;97110.84;5043188;28;20049;-51
2022/10/15 07:24:18;;;;;;;0.73;0.73;;;16.40;99.90;;;19.37;63.12;97108.75;5043743;28;20057;-52
2022/10/15 07:26:46;;;;;;;0.60;0.60;;;16.50;99.90;;;19.41;63.19;97114.50;5042792;28;20254;-51
2022/10/15 07:29:14;;;;;;;1.25;0.73;;;16.50;99.90;;;19.44;63.29;97117.56;5042967;28;20240;-51
2022/10/15 07:31:43;;;;;;;0.50;0.43;;;16.60;99.90;;;19.50;63.02;97126.59;5043008;28;20251;-52
2022/10/15 07:34:18;;;;;;;0.50;0.50;;;16.60;99.90;;;19.53;62.99;97128.84;5042695;28;20042;-51
2022/10/15 07:36:46;;;;;;;0.82;0.52;;;16.60;99.90;;;19.54;62.98;97129.66;5042435;28;20053;-52
2022/10/15 07:39:14;;;;;;;0.95;0.60;;;16.60;99.90;;;19.54;63.00;97129.66;5043028;28;20045;-52
2022/10/15 07:41:41;;;;;;;2.58;0.65;;;16.60;99.90;;;19.56;62.93;97132.94;5042835;28;20365;-51
2022/10/15 07:44:09;;;;;;;0.60;0.60;;;16.60;99.90;;;19.54;62.93;97130.50;5042278;28;20052;-51
2022/10/15 07:46:37;;;;;;;0.55;0.55;;;16.60;99.90;;;19.55;63.08;97134.84;5042309;28;20041;-52
2022/10/15 07:49:05;;;;;;;0.77;0.65;;;16.70;99.90;;;19.57;62.92;97142.72;5042526;28;20041;-50
2022/10/15 07:51:33;;;;;;;1.33;0.98;;;16.60;99.90;;;19.58;62.91;97139.78;5042593;28;20041;-51
2022/10/15 07:54:00;;;;;;;1.27;0.70;;;16.70;99.90;;;19.60;62.93;97143.06;5042459;28;20362;-50
2022/10/15 07:56:28;;;;;;;1.58;0.88;;;16.70;99.90;;;19.64;62.73;97148.84;5041957;28;20045;-50
2022/10/15 07:58:56;;;;;;;0.90;0.63;;;16.70;99.90;;;19.61;62.67;97152.81;5042640;28;20240;-51
2022/10/15 08:01:25;;;;;;;2.20;0.80;;;16.70;99.90;;;19.59;62.69;97152.22;5041435;28;20045;-50
2022/10/15 08:03:52;;;;;;;1.45;1.00;;;16.60;99.90;;;19.59;62.64;97157.63;5042916;28;20046;-52
2022/10/15 08:06:20;;;;;;;2.10;0.95;;;16.60;99.90;;;19.57;62.65;97151.63;5042371;28;20056;-52
2022/10/15 08:08:48;;;;;;;2.65;0.98;;;16.60;99.90;;;19.58;62.63;97155.13;5042028;28;20049;-51
2022/10/15 08:11:16;;;;;;;1.20;0.90;;;16.60;99.90;;;19.58;62.85;97163.25;5042930;28;20256;-51
2022/10/15 08:13:45;;;;;;;3.08;1.10;;;16.60;99.90;;;19.57;62.86;97156.22;5042369;28;20247;-50
2022/10/15 08:16:15;;;;;;;1.75;0.90;;;16.60;99.90;;;19.60;62.86;97153.88;5041332;28;20046;-50
2022/10/15 08:18:48;;;;;;;2.25;1.40;;;16.60;99.90;;;19.62;62.63;97150.94;5042659;28;20064;-51
2022/10/15 08:21:16;;;;;;;1.50;1.00;;;16.60;99.90;;;19.64;62.50;97149.66;5042266;28;20052;-50
2022/10/15 08:23:44;;;;;;;1.70;1.02;;;16.70;99.90;;;19.67;62.27;97157.28;5042226;28;20265;-52
2022/10/15 08:26:11;;;;;;;2.05;0.98;;;16.70;99.90;;;19.67;62.30;97162.69;5041821;28;20071;-49
2022/10/15 08:28:39;;;;;;;1.50;1.00;;;16.70;99.90;;;19.69;62.22;97157.06;5042013;28;20050;-50
2022/10/15 08:31:08;;;;;;;1.20;0.98;;;16.70;99.90;;;19.71;62.22;97163.03;5042368;28;20382;-52
2022/10/15 08:33:37;;;;;;;2.38;1.50;;;16.70;99.90;;;19.73;62.14;97160.16;5042184;28;20071;-51
2022/10/15 08:36:06;;;;;;;3.92;1.35;;;16.70;99.90;;;19.73;62.31;97155.56;5042446;28;20045;-50
2022/10/15 08:38:34;;;;;;;2.25;1.50;;;16.70;99.90;;;19.72;62.15;97156.63;5041530;28;20047;-50
2022/10/15 08:41:12;;;;;;;1.42;0.93;;;16.70;99.90;;;19.73;61.93;97166.38;5042142;28;20051;-51
2022/10/15 08:43:42;;;;;;;2.33;1.10;;;16.80;99.90;;;19.72;62.20;97167.44;5040819;28;20240;-51
2022/10/15 08:46:25;;;;;;;1.73;1.17;;;16.70;99.90;;;19.71;61.95;97165.75;5041043;28;20050;-54
2022/10/15 08:48:56;;;;;;;1.85;1.60;;;16.70;99.90;;;19.72;61.84;97164.75;5040771;28;20056;-52
2022/10/15 08:51:47;;;;;;;2.00;1.00;;;16.70;99.90;;;19.77;61.90;97164.03;5042503;28;20060;-52
2022/10/15 08:54:17;;;;;;;1.58;1.20;;;16.70;99.90;;;19.81;61.83;97173.31;5041327;28;20053;-53
2022/10/15 08:57:04;;;;;;;2.97;1.30;;;16.80;99.90;;;19.84;61.93;97167.47;5041500;28;20579;-52
2022/10/15 08:59:53;;;;;;;3.03;1.23;;;16.90;99.90;;;19.91;61.88;97175.44;5040937;28;20252;-50
2022/10/15 09:02:45;;;;;;;3.78;1.77;;;16.90;99.90;;;19.94;62.02;97170.41;5040873;28;20038;-52
2022/10/15 09:05:50;;;;;;;2.00;1.58;;;17.00;99.90;;;19.94;61.88;97177.69;5041888;28;20049;-50
2022/10/15 09:09:05;;;;;;;1.55;1.23;;;17.00;99.90;;;19.95;61.65;97176.63;5041323;28;20049;-52
2022/10/15 09:12:13;;;;;;;1.85;1.35;;;17.00;99.90;;;19.97;61.59;97169.13;5047297;28;20340;-49
2022/10/15 09:14:43;;;;;;;2.47;1.13;;;17.00;99.90;;;20.00;61.86;97180.28;5041772;28;20407;-52
2022/10/15 09:17:22;;;;;;;3.38;2.13;;;17.00;99.90;;;20.05;61.70;97180.41;5040917;28;20057;-50
2022/10/15 09:19:54;;;;;;;3.60;1.95;;;17.10;99.90;;;20.11;61.64;97178.66;5041590;28;20067;-53
2022/10/15 09:22:31;;;;;;;2.33;1.48;;;17.20;99.90;;;20.16;61.54;97176.09;5041747;28;20235;-53
2022/10/15 09:25:04;;;;;;;3.25;1.77;;;17.20;99.90;;;20.18;61.24;97184.78;5041852;28;20052;-50
2022/10/15 09:27:38;;;;;;;5.15;2.25;;;17.20;99.90;;;20.27;61.09;97180.66;5041682;28;20045;-49
2022/10/15 09:30:41;;;;;;;3.95;2.00;;;17.30;99.90;;;20.29;61.30;97195.81;5043864;28;20073;-51
2022/10/15 09:33:15;;;;;;;2.00;1.27;;;17.40;99.90;;;20.32;61.40;97188.06;5045188;28;20213;-51
2022/10/15 09:35:58;;;;;;;3.40;2.40;;;17.40;99.90;;;20.33;61.23;97187.00;5045079;28;20041;-51
2022/10/15 09:39:13;;;;;;;4.20;2.25;;;17.50;99.90;;;20.35;61.24;97198.41;5044609;28;20057;-52
2022/10/15 09:42:32;;;;;;;1.98;1.40;;;17.50;99.90;;;20.39;61.32;97204.97;5045132;28;20046;-50
2022/10/15 09:45:08;;;;;;;3.65;2.40;;;17.50;99.90;;;20.36;61.00;97200.06;5047343;28;20056;-51
2022/10/15 09:47:40;;;;;;;3.08;1.30;;;17.40;99.90;;;20.39;61.46;97204.16;5044577;28;20046;-51
2022/10/15 09:50:13;;;;;;;1.42;0.82;;;17.40;99.90;;;20.36;61.24;97207.34;5044856;28;20052;-50
2022/10/15 09:53:28;;;;;;;1.38;0.80;;;17.40;99.90;;;20.36;61.14;97196.53;5043858;28;20045;-49
2022/10/15 09:56:18;;;;;;;2.50;1.90;;;17.40;99.90;;;20.42;61.66;97203.72;5062676;28;20351;-52
2022/10/15 09:58:54;;;;;;;9.85;2.35;;;17.50;99.90;;;20.47;61.59;97195.69;5043132;28;20076;-50
2022/10/15 10:01:28;;;;;;;2.10;1.30;;;17.50;99.90;;;20.50;61.91;97191.72;5043194;28;20362;-50
2022/10/15 10:04:19;;;;;;;3.10;1.40;;;17.60;99.90;;;20.47;61.83;97198.41;5044818;28;20473;-52
2022/10/15 10:06:58;;;;;;;2.08;0.80;;;17.50;99.90;;;20.43;61.12;97203.47;5045258;28;20057;-54
2022/10/15 10:09:38;;;;;;;2.20;0.80;;;17.50;99.90;;;20.38;61.36;97199.84;5043477;28;20260;-50
2022/10/15 10:12:16;;;;;;;0.88;0.65;;;17.50;99.90;;;20.27;61.66;97199.56;5043359;28;20053;-52
2022/10/15 10:14:52;;;;;;;3.38;0.98;;;17.40;99.90;;;20.23;61.93;97201.09;5041290;28;20049;-54
2022/10/15 10:17:23;;;;;;;0.80;0.80;;;17.40;99.90;;;20.22;62.18;97201.31;5043762;28;20047;-52
2022/10/15 10:20:14;;;;;;;1.48;0.80;;;17.40;99.90;;;20.28;62.18;97208.53;5044436;28;20303;-53
2022/10/15 10:22:59;;;;;;;1.30;0.85;;;17.50;99.90;;;20.27;61.91;97217.69;5044951;28;20045;-50
2022/10/15 10:25:37;;;;;;;0.55;0.55;;;17.50;99.90;;;20.41;61.83;97210.16;5044207;28;20232;-53
2022/10/15 10:28:14;;;;;;;1.33;0.75;;;17.70;99.90;;;20.49;61.67;97217.09;5042720;28;20056;-50
2022/10/15 10:30:59;;;;;;;1.85;0.80;;;17.80;99.90;;;20.57;61.74;97212.19;5045276;28;20050;-53
2022/10/15 10:33:51;;;;;;;2.47;0.90;;;17.90;99.90;;;20.64;61.66;97221.00;5044445;28;20045;-50
2022/10/15 10:36:27;;;;;;;0.65;0.65;;;17.90;99.90;;;20.62;61.80;97225.00;5044183;28;20045;-50
2022/10/15 10:39:14;;;;;;;1.52;1.23;;;18.00;99.90;;;20.74;61.42;97228.50;5043684;28;20047;-52
2022/10/15 10:42:22;;;;;;;0.65;0.60;;;18.10;99.90;;;20.84;61.62;97223.34;5043067;28;20361;-53
2022/10/15 10:44:52;;;;;;;1.10;0.73;;;18.20;99.90;;;20.83;60.40;97221.69;5043889;28;20045;-53
2022/10/15 10:47:25;;;;;;;0.43;0.43;;;18.20;99.90;;;20.63;59.96;97218.56;5043406;28;20236;-54
2022/10/15 10:49:57;;;;;;;0.82;0.70;;;18.10;99.90;;;20.81;59.75;97223.81;5044277;28;20065;-53
2022/10/15 10:52:33;;;;;;;0.52;0.52;;;18.10;99.90;;;20.86;60.24;97223.13;5043778;28;20059;-53